Time;durP1;ratioP1;P1;durP2;ratioP2;P2;SDS_P1;SDS_P2;PMS_P1;PMS_P2;Temp;Humidity;BMP_temperature;BMP_pressure;BME280_temperature;BME280_humidity;BME280_pressure;Samples;Min_cycle;Max_cycle;Signal;HPM_P1;HPM_P2
2024/02/08 19:27:01;;;;;;;10.20;2.80;;;;;;;11.68;65.09;100303.98;102132;1294;600200;-57
2024/02/08 19:29:29;;;;;;;11.60;2.50;;;;;;;12.09;65.73;100302.65;104386;1267;63110;-57
2024/02/08 19:31:57;;;;;;;8.70;3.50;;;;;;;12.40;65.95;100302.49;104240;1267;60313;-55
2024/02/08 19:34:29;;;;;;;7.20;2.30;;;;;;;12.64;65.84;100301.78;104503;1270;72519;-55
2024/02/08 19:40:24;;;;;;;4.90;2.20;;;;;;;12.76;62.17;100303.25;102316;1292;603199;-64
2024/02/08 19:42:52;;;;;;;3.70;2.40;;;;;;;12.46;60.89;100305.52;104618;1271;61507;-61
2024/02/08 19:45:31;;;;;;;4.10;2.30;;;;;;;12.22;60.39;100310.10;104629;1271;60670;-59
2024/02/08 19:48:00;;;;;;;5.10;2.40;;;;;;;12.06;60.66;100310.98;104571;1267;74485;-61
2024/02/08 19:50:28;;;;;;;3.50;2.60;;;;;;;12.03;60.44;100309.99;105131;1254;72549;-61
2024/02/08 19:52:57;;;;;;;4.00;2.90;;;;;;;11.95;58.79;100305.05;104508;1265;277683;-61
2024/02/08 19:55:32;;;;;;;3.60;2.40;;;;;;;11.76;58.08;100302.24;105278;1253;62534;-59
2024/02/08 19:58:07;;;;;;;4.30;2.60;;;;;;;11.58;57.49;100298.02;105234;1257;59708;-59
2024/02/08 20:00:37;;;;;;;2.90;2.30;;;;;;;11.43;57.58;100299.89;104998;1262;72250;-60
2024/02/08 20:03:16;;;;;;;3.70;2.70;;;;;;;11.32;57.45;100295.70;105260;1254;73109;-57
2024/02/08 20:05:47;;;;;;;3.10;2.40;;;;;;;11.21;57.37;100284.50;105402;1254;73271;-60
2024/02/08 20:08:16;;;;;;;3.20;2.50;;;;;;;11.08;56.69;100286.48;105283;1254;59816;-60
2024/02/08 20:10:46;;;;;;;4.30;2.30;;;;;;;10.87;56.63;100281.23;105326;1254;59737;-60
2024/02/08 20:13:17;;;;;;;3.40;2.70;;;;;;;10.69;56.71;100278.02;105266;1254;72535;-57
2024/02/08 20:15:49;;;;;;;3.10;2.70;;;;;;;10.50;56.60;100275.33;105226;1254;75152;-59
2024/02/08 20:18:17;;;;;;;3.80;2.60;;;;;;;10.34;56.81;100276.94;105352;1254;72522;-59
2024/02/08 20:20:51;;;;;;;3.70;2.50;;;;;;;10.22;56.81;100278.52;105136;1254;61248;-60
2024/02/08 20:23:21;;;;;;;3.80;2.50;;;;;;;10.08;57.03;100280.27;105467;1257;60075;-60
2024/02/08 20:25:50;;;;;;;4.50;2.70;;;;;;;9.94;57.31;100283.61;105461;1254;72470;-59
2024/02/08 20:28:18;;;;;;;3.20;2.90;;;;;;;9.84;57.60;100286.18;105428;1254;73399;-59
2024/02/08 20:30:53;;;;;;;2.80;2.40;;;;;;;9.74;57.78;100294.71;105366;1257;72121;-61
2024/02/08 20:33:27;;;;;;;5.50;2.80;;;;;;;9.67;58.50;100299.01;105387;1259;60152;-59
2024/02/08 20:35:56;;;;;;;4.50;2.80;;;;;;;9.70;58.95;100298.97;105330;1257;63112;-62
2024/02/08 20:38:30;;;;;;;6.60;2.90;;;;;;;9.73;59.46;100293.32;105250;1257;73978;-63
2024/02/08 20:40:58;;;;;;;3.10;2.80;;;;;;;9.79;59.31;100294.30;105112;1254;72463;-58
2024/02/08 20:43:26;;;;;;;4.10;2.80;;;;;;;9.79;59.27;100293.79;105152;1253;72130;-59
2024/02/08 20:45:54;;;;;;;3.40;2.50;;;;;;;9.77;59.23;100293.80;105086;1259;59628;-60
2024/02/08 20:48:22;;;;;;;3.00;2.60;;;;;;;9.70;58.89;100295.98;105072;1255;59999;-55
2024/02/08 20:54:17;;;;;;;2.80;2.50;;;;;;;9.65;59.06;100303.92;102085;1291;600404;-55
2024/02/08 20:56:48;;;;;;;3.90;3.00;;;;;;;9.56;59.10;100298.08;104479;1267;59756;-56
2024/02/08 20:59:17;;;;;;;3.00;2.50;;;;;;;9.49;59.08;100296.56;104200;1272;59615;-56
2024/02/08 21:01:45;;;;;;;4.90;2.80;;;;;;;9.40;59.13;100302.09;104307;1270;72907;-55
2024/02/08 21:04:19;;;;;;;4.60;3.10;;;;;;;9.30;59.09;100296.41;104507;1267;72421;-55
2024/02/08 21:06:48;;;;;;;6.30;3.80;;;;;;;9.20;59.75;100286.19;104310;1264;290474;-54
2024/02/08 21:09:20;;;;;;;3.30;2.50;;;;;;;9.15;60.23;100283.79;104751;1264;60144;-56
2024/02/08 21:11:49;;;;;;;5.00;3.30;;;;;;;9.10;60.37;100280.52;105180;1262;60559;-55
2024/02/08 21:14:21;;;;;;;5.20;2.90;;;;;;;9.06;60.59;100269.19;105171;1262;72573;-56
2024/02/08 21:16:53;;;;;;;5.70;3.80;;;;;;;9.01;60.46;100263.10;104858;1256;72134;-54
2024/02/08 21:19:22;;;;;;;4.30;3.00;;;;;;;8.95;60.44;100261.40;104927;1262;73256;-54
2024/02/08 21:21:51;;;;;;;5.70;3.50;;;;;;;8.89;60.70;100262.34;105014;1257;60715;-57
2024/02/08 21:24:20;;;;;;;4.40;3.50;;;;;;;8.88;60.85;100264.27;105120;1257;60457;-56
2024/02/08 21:26:53;;;;;;;3.30;2.90;;;;;;;8.88;60.76;100260.60;105081;1258;73156;-55
2024/02/08 21:29:36;;;;;;;3.40;3.10;;;;;;;8.86;60.96;100256.77;105069;1258;72824;-55
2024/02/08 21:32:06;;;;;;;5.60;3.40;;;;;;;8.83;60.88;100261.34;104750;1260;72835;-56
2024/02/08 21:34:36;;;;;;;4.00;3.60;;;;;;;8.78;60.98;100261.21;105207;1262;59622;-57
2024/02/08 21:37:06;;;;;;;5.40;3.70;;;;;;;8.75;61.06;100259.84;104934;1257;59738;-65
2024/02/08 21:39:36;;;;;;;5.10;3.10;;;;;;;8.73;61.26;100257.22;105124;1258;73077;-60
2024/02/08 21:42:06;;;;;;;3.60;3.00;;;;;;;8.72;61.31;100261.25;105043;1256;73299;-59
2024/02/08 21:44:38;;;;;;;4.40;3.40;;;;;;;8.71;61.51;100262.50;104729;1261;72686;-57
2024/02/08 21:47:06;;;;;;;4.10;3.10;;;;;;;8.71;61.49;100262.83;105396;1254;60491;-61
2024/02/08 21:49:34;;;;;;;5.30;3.20;;;;;;;8.67;61.41;100263.23;105392;1257;59695;-58
2024/02/08 21:52:07;;;;;;;3.60;3.10;;;;;;;8.67;61.68;100264.45;105371;1253;71854;-61
2024/02/08 21:54:38;;;;;;;4.50;3.10;;;;;;;8.72;62.03;100262.48;105475;1253;73484;-60
2024/02/08 21:57:08;;;;;;;3.80;2.60;;;;;;;8.80;62.07;100266.27;105324;1258;70459;-59
2024/02/08 21:59:36;;;;;;;4.30;3.10;;;;;;;8.85;61.88;100262.54;105406;1254;60633;-63
2024/02/08 22:02:05;;;;;;;4.30;3.30;;;;;;;8.87;61.76;100255.17;105572;1253;60044;-64
2024/02/08 22:04:34;;;;;;;3.90;2.80;;;;;;;8.88;61.62;100248.52;105464;1253;72099;-62
2024/02/08 22:07:02;;;;;;;4.10;3.30;;;;;;;8.85;61.67;100251.35;105381;1254;75654;-61
2024/02/08 22:09:30;;;;;;;4.00;2.80;;;;;;;8.82;61.53;100259.25;105552;1253;73316;-63
2024/02/08 22:11:58;;;;;;;3.70;2.60;;;;;;;8.76;61.17;100259.83;105474;1257;59694;-64
2024/02/08 22:14:27;;;;;;;3.40;2.80;;;;;;;8.66;61.06;100255.89;105386;1253;59557;-64
2024/02/08 22:16:57;;;;;;;3.20;2.60;;;;;;;8.58;61.34;100250.16;105285;1253;73650;-63
2024/02/08 22:19:35;;;;;;;3.50;2.80;;;;;;;8.56;61.38;100251.23;105381;1253;72876;-65
2024/02/08 22:22:03;;;;;;;2.70;2.40;;;;;;;8.52;61.52;100247.96;105392;1253;71699;-64
2024/02/08 22:24:31;;;;;;;4.00;2.80;;;;;;;8.52;61.95;100247.08;105339;1260;61354;-63
2024/02/08 22:26:59;;;;;;;5.20;2.70;;;;;;;8.58;61.99;100247.20;105327;1254;60096;-62
2024/02/08 22:29:27;;;;;;;2.80;2.50;;;;;;;8.59;61.99;100249.29;105439;1254;73565;-63
2024/02/08 22:31:55;;;;;;;3.50;2.50;;;;;;;8.57;61.77;100252.46;105516;1253;73335;-62
2024/02/08 22:34:25;;;;;;;3.60;2.40;;;;;;;8.52;62.06;100255.13;105418;1254;70748;-63
2024/02/08 22:36:53;;;;;;;3.60;2.90;;;;;;;8.55;62.05;100261.39;105427;1260;62046;-61
2024/02/08 22:42:46;;;;;;;3.40;2.20;;;;;;;8.51;61.83;100268.77;102698;1291;602003;-62
2024/02/08 22:45:14;;;;;;;4.30;2.20;;;;;;;8.46;61.73;100262.67;104610;1266;61712;-62
2024/02/08 22:47:43;;;;;;;3.70;1.90;;;;;;;8.40;61.66;100261.13;104797;1266;59558;-62
2024/02/08 22:50:12;;;;;;;2.30;1.80;;;;;;;8.33;61.82;100256.79;104574;1266;71373;-63
2024/02/08 22:52:45;;;;;;;3.00;2.00;;;;;;;8.27;61.67;100250.55;104691;1269;70869;-62
2024/02/08 22:55:21;;;;;;;4.10;2.30;;;;;;;8.21;61.79;100242.20;104720;1267;72737;-65
2024/02/08 22:58:00;;;;;;;2.80;2.00;;;;;;;8.21;62.17;100234.66;104527;1269;59819;-63
2024/02/08 23:03:06;;;;;;;2.50;2.00;;;;;;;8.23;62.10;100217.73;104780;1269;72317;-64
2024/02/08 23:05:43;;;;;;;2.70;2.10;;;;;;;8.18;62.27;100217.77;104797;1264;71589;-63
2024/02/08 23:08:14;;;;;;;3.00;2.20;;;;;;;8.17;62.31;100218.63;104796;1267;71836;-65
2024/02/08 23:10:42;;;;;;;3.80;2.10;;;;;;;8.15;62.55;100215.15;104780;1263;60395;-64
2024/02/08 23:13:10;;;;;;;2.50;2.20;;;;;;;8.19;62.90;100208.48;104914;1263;59752;-63
2024/02/08 23:15:46;;;;;;;2.10;1.70;;;;;;;8.25;62.98;100204.08;105232;1260;73320;-62
2024/02/08 23:18:21;;;;;;;2.40;1.80;;;;;;;8.33;63.04;100202.09;105225;1262;71726;-65
2024/02/08 23:20:53;;;;;;;2.80;2.00;;;;;;;8.37;62.79;100194.73;105046;1260;71420;-60
2024/02/08 23:23:21;;;;;;;2.80;2.10;;;;;;;8.37;62.55;100194.04;105175;1260;60109;-64
2024/02/08 23:25:49;;;;;;;2.50;1.90;;;;;;;8.35;62.50;100190.89;105188;1261;60242;-63
2024/02/08 23:28:19;;;;;;;3.80;2.00;;;;;;;8.33;62.69;100191.60;105199;1263;73087;-63
2024/02/08 23:30:49;;;;;;;2.10;1.80;;;;;;;8.32;62.58;100198.95;105164;1257;71910;-63
2024/02/08 23:33:18;;;;;;;1.90;1.70;;;;;;;8.26;62.47;100198.83;105290;1257;71659;-62
2024/02/08 23:35:46;;;;;;;2.40;2.00;;;;;;;8.22;62.31;100203.05;105177;1257;60153;-63
2024/02/08 23:38:18;;;;;;;2.30;1.80;;;;;;;8.16;62.21;100202.05;105134;1260;60930;-63
2024/02/08 23:40:49;;;;;;;;;;;;;;;8.07;62.11;100198.95;105213;1259;73118;-63
2024/02/08 23:43:17;;;;;;;3.30;1.90;;;;;;;7.99;62.28;100201.46;105233;1260;71793;-62
2024/02/08 23:45:45;;;;;;;2.60;1.50;;;;;;;7.96;62.60;100200.77;105067;1264;71460;-62
2024/02/08 23:48:13;;;;;;;2.60;2.00;;;;;;;7.98;62.65;100197.62;105126;1260;59637;-63
2024/02/08 23:50:42;;;;;;;2.70;1.90;;;;;;;7.98;62.59;100199.71;105293;1254;59810;-63
2024/02/08 23:53:10;;;;;;;2.20;1.70;;;;;;;7.96;62.59;100194.67;105240;1260;71516;-63
2024/02/08 23:55:39;;;;;;;2.20;1.60;;;;;;;7.94;62.78;100193.45;105227;1260;73495;-63
2024/02/08 23:58:10;;;;;;;2.20;1.70;;;;;;;7.96;62.80;100199.04;105003;1260;72760;-63
